createdAt,value
2019-03-30T00:00:10.869Z,48.80
2019-03-30T00:02:40.289Z,44.80
2019-03-30T00:05:09.727Z,50.60
2019-03-30T00:07:39.715Z,50.78
2019-03-30T00:10:09.252Z,48.05
2019-03-30T00:12:38.695Z,42.35
2019-03-30T00:15:08.107Z,48.42
2019-03-30T00:17:37.543Z,56.68
2019-03-30T00:20:06.952Z,49.60
2019-03-30T00:22:36.497Z,46.33
2019-03-30T00:25:06.508Z,41.15
2019-03-30T00:27:35.961Z,40.05
2019-03-30T00:30:07.004Z,39.48
2019-03-30T00:32:36.328Z,36.68
2019-03-30T00:35:06.694Z,41.95
2019-03-30T00:37:36.018Z,36.50
2019-03-30T00:40:07.206Z,31.62
2019-03-30T00:42:52.831Z,34.20
2019-03-30T00:45:24.512Z,93.42
2019-03-30T00:48:09.960Z,58.30
2019-03-30T00:50:41.492Z,53.05
2019-03-30T00:53:33.016Z,42.40
2019-03-30T00:56:04.697Z,39.40
2019-03-30T00:58:50.060Z,39.42
2019-03-30T01:01:21.346Z,37.25
2019-03-30T01:03:52.558Z,40.03
2019-03-30T01:06:23.768Z,33.73
2019-03-30T01:09:10.293Z,37.65
2019-03-30T01:11:41.559Z,34.70
2019-03-30T01:14:13.089Z,30.88
2019-03-30T01:16:58.856Z,34.85
2019-03-30T01:19:30.069Z,33.78
2019-03-30T01:22:01.253Z,35.73
2019-03-30T01:24:32.465Z,40.85
2019-03-30T01:27:18.310Z,45.40
2019-03-30T01:29:49.522Z,38.73
2019-03-30T01:32:20.739Z,40.65
2019-03-30T01:34:51.944Z,37.05
2019-03-30T01:37:22.828Z,27.60
2019-03-30T01:40:08.947Z,38.70
2019-03-30T01:42:40.160Z,37.17
2019-03-30T01:45:11.345Z,44.38
2019-03-30T01:47:42.556Z,42.93
2019-03-30T01:50:17.729Z,51.15
2019-03-30T01:52:47.601Z,47.85
2019-03-30T01:55:33.243Z,44.08
2019-03-30T01:58:04.469Z,45.73
2019-03-30T02:00:35.682Z,46.18
2019-03-30T02:03:06.964Z,51.75
2019-03-30T02:05:52.712Z,55.90
2019-03-30T02:08:23.935Z,46.98
2019-03-30T02:10:55.117Z,48.23
2019-03-30T02:13:26.514Z,44.93
2019-03-30T02:16:18.195Z,49.63
2019-03-30T02:18:49.409Z,49.20
2019-03-30T02:21:18.832Z,54.50
2019-03-30T02:23:49.588Z,58.05
2019-03-30T02:26:19.093Z,59.23
2019-03-30T02:28:48.539Z,68.85
2019-03-30T02:31:17.953Z,66.10
2019-03-30T02:33:47.399Z,67.27
2019-03-30T02:36:16.812Z,57.35
2019-03-30T02:38:46.750Z,74.03
2019-03-30T02:41:16.184Z,75.10
2019-03-30T02:43:46.522Z,77.25
2019-03-30T02:46:15.957Z,79.62
2019-03-30T02:48:45.371Z,66.87
2019-03-30T02:51:14.818Z,39.73
2019-03-30T02:53:44.227Z,44.75
2019-03-30T02:56:14.477Z,48.78
2019-03-30T02:58:44.790Z,42.00
2019-03-30T03:01:14.584Z,37.80
2019-03-30T03:03:44.548Z,39.98
2019-03-30T03:06:14.488Z,40.38
2019-03-30T03:08:43.894Z,42.30
2019-03-30T03:11:13.638Z,34.45
2019-03-30T03:13:43.058Z,39.53
2019-03-30T03:16:12.791Z,51.70
2019-03-30T03:18:42.412Z,39.67
2019-03-30T03:21:11.853Z,44.85
2019-03-30T03:23:41.640Z,49.58
2019-03-30T03:26:11.688Z,50.70
2019-03-30T03:28:41.103Z,54.63
2019-03-30T03:31:10.697Z,56.55
2019-03-30T03:33:40.175Z,57.17
2019-03-30T03:36:09.664Z,61.98
2019-03-30T03:38:39.087Z,61.45
2019-03-30T03:41:08.608Z,69.40
2019-03-30T03:43:38.027Z,59.95
2019-03-30T03:46:07.476Z,61.68
2019-03-30T03:48:36.892Z,73.57
2019-03-30T03:51:24.493Z,61.60
2019-03-30T03:53:37.450Z,71.20
2019-03-30T03:56:06.899Z,58.78
2019-03-30T03:58:36.307Z,68.40
2019-03-30T04:01:05.760Z,64.07
2019-03-30T04:03:35.242Z,73.33
2019-03-30T04:06:05.717Z,75.32
2019-03-30T04:08:35.371Z,74.85
2019-03-30T04:11:04.894Z,72.53
2019-03-30T04:13:34.299Z,77.60
2019-03-30T04:16:03.735Z,75.87
2019-03-30T04:18:33.152Z,79.45
2019-03-30T04:21:02.683Z,89.47
2019-03-30T04:23:32.076Z,79.30
2019-03-30T04:26:01.527Z,86.90
2019-03-30T04:28:31.039Z,90.77
2019-03-30T04:31:00.496Z,96.22
2019-03-30T04:33:29.929Z,94.20
2019-03-30T04:35:59.347Z,96.82
2019-03-30T04:38:28.760Z,89.25
2019-03-30T04:40:58.204Z,88.47
2019-03-30T04:43:27.716Z,92.60
2019-03-30T04:45:57.159Z,96.15
2019-03-30T04:48:29.474Z,91.95
2019-03-30T04:50:57.749Z,98.35
2019-03-30T04:53:27.193Z,103.12
2019-03-30T04:55:56.606Z,94.65
2019-03-30T04:58:26.048Z,98.33
2019-03-30T05:00:55.496Z,107.47
2019-03-30T05:03:24.944Z,104.65
2019-03-30T05:05:54.365Z,110.03
2019-03-30T05:08:23.808Z,99.03
2019-03-30T05:10:53.217Z,95.00
2019-03-30T05:13:22.755Z,91.05
2019-03-30T05:15:52.267Z,86.97
2019-03-30T05:18:21.824Z,91.22
2019-03-30T05:20:51.234Z,89.70
2019-03-30T05:23:20.669Z,87.17
2019-03-30T05:25:50.185Z,91.42
2019-03-30T05:28:19.631Z,90.00
2019-03-30T05:30:49.040Z,83.37
2019-03-30T05:33:18.483Z,83.87
2019-03-30T05:35:47.897Z,91.50
2019-03-30T05:38:17.336Z,90.38
2019-03-30T05:40:46.749Z,89.45
2019-03-30T05:43:16.552Z,98.72
2019-03-30T05:45:45.967Z,98.22
2019-03-30T05:48:15.412Z,102.05
2019-03-30T05:50:45.228Z,113.05
2019-03-30T05:53:14.687Z,113.12
2019-03-30T05:55:44.104Z,96.25
2019-03-30T05:58:13.641Z,96.50
2019-03-30T06:00:43.127Z,98.00
2019-03-30T06:03:12.672Z,104.75
2019-03-30T06:05:42.471Z,94.95
2019-03-30T06:08:13.856Z,96.35
2019-03-30T06:10:43.278Z,90.47
2019-03-30T06:13:14.712Z,90.25
2019-03-30T06:15:44.423Z,82.55
2019-03-30T06:18:13.933Z,82.00
2019-03-30T06:20:43.384Z,81.10
2019-03-30T06:23:12.849Z,95.45
2019-03-30T06:25:42.735Z,90.07
2019-03-30T06:28:12.187Z,89.40
2019-03-30T06:30:41.594Z,88.85
2019-03-30T06:33:11.632Z,87.67
2019-03-30T06:35:41.045Z,93.85
2019-03-30T06:38:10.485Z,82.78
2019-03-30T06:40:39.908Z,77.03
2019-03-30T06:43:09.349Z,82.00
2019-03-30T06:45:38.762Z,91.30
2019-03-30T06:48:08.209Z,76.95
2019-03-30T06:50:37.627Z,86.08
2019-03-30T06:53:07.069Z,77.17
2019-03-30T06:55:36.522Z,74.17
2019-03-30T06:58:05.935Z,75.47
2019-03-30T07:00:35.446Z,67.37
2019-03-30T07:03:05.514Z,46.90
2019-03-30T07:05:42.519Z,42.53
2019-03-30T07:08:12.572Z,42.90
2019-03-30T07:10:43.668Z,36.48
2019-03-30T07:13:14.066Z,37.70
2019-03-30T07:15:47.304Z,37.63
2019-03-30T07:18:16.852Z,34.15
2019-03-30T07:20:46.293Z,33.80
2019-03-30T07:23:17.268Z,37.73
2019-03-30T07:25:46.707Z,35.50
2019-03-30T07:28:16.121Z,37.17
2019-03-30T07:30:45.560Z,41.48
2019-03-30T07:33:15.257Z,35.43
2019-03-30T07:35:44.704Z,41.40
2019-03-30T07:38:14.129Z,39.98
2019-03-30T07:40:43.653Z,39.08
2019-03-30T07:43:13.075Z,34.67
2019-03-30T07:45:42.518Z,31.97
2019-03-30T07:48:12.459Z,32.75
2019-03-30T07:50:41.915Z,29.63
2019-03-30T07:53:25.246Z,26.37
2019-03-30T07:55:43.708Z,31.37
2019-03-30T07:58:13.135Z,38.60
2019-03-30T08:00:42.584Z,32.15
2019-03-30T08:03:12.491Z,38.73
2019-03-30T08:05:41.944Z,31.00
2019-03-30T08:08:11.364Z,26.12
2019-03-30T08:10:40.832Z,25.72
2019-03-30T08:13:10.245Z,24.60
2019-03-30T08:15:39.985Z,29.55
2019-03-30T08:18:09.355Z,24.18
2019-03-30T08:20:38.836Z,32.75
2019-03-30T08:23:08.260Z,25.20
2019-03-30T08:25:37.747Z,27.90
2019-03-30T08:28:07.148Z,28.42
2019-03-30T08:30:36.609Z,29.98
2019-03-30T08:33:06.026Z,27.50
2019-03-30T08:35:35.481Z,38.20
2019-03-30T08:38:04.905Z,29.07
2019-03-30T08:40:34.509Z,33.02
2019-03-30T08:43:03.928Z,48.90
2019-03-30T08:45:33.377Z,33.50
2019-03-30T08:48:02.867Z,31.65
2019-03-30T08:50:32.325Z,27.05
2019-03-30T08:53:01.749Z,39.55
2019-03-30T08:55:31.201Z,28.77
2019-03-30T08:58:00.823Z,34.30
2019-03-30T09:00:42.924Z,27.20
2019-03-30T09:03:12.932Z,26.12
2019-03-30T09:05:42.996Z,27.40
2019-03-30T09:08:12.422Z,27.42
2019-03-30T09:10:41.860Z,27.07
2019-03-30T09:13:11.276Z,29.42
2019-03-30T09:15:41.448Z,24.75
2019-03-30T09:18:10.865Z,22.13
2019-03-30T09:20:40.313Z,24.10
2019-03-30T09:23:09.767Z,25.80
2019-03-30T09:25:39.205Z,23.92
2019-03-30T09:28:08.633Z,24.37
2019-03-30T09:30:38.089Z,22.52
2019-03-30T09:33:07.505Z,23.73
2019-03-30T09:35:36.963Z,26.17
2019-03-30T09:38:06.412Z,26.80
2019-03-30T09:40:35.909Z,32.15
2019-03-30T09:43:05.357Z,23.62
2019-03-30T09:45:34.776Z,23.32
2019-03-30T09:48:04.233Z,30.55
2019-03-30T09:50:33.653Z,30.25
2019-03-30T09:53:03.098Z,27.93
2019-03-30T09:55:32.518Z,24.98
2019-03-30T09:58:01.965Z,27.10
2019-03-30T10:00:31.384Z,24.60
2019-03-30T10:03:00.825Z,23.40
2019-03-30T10:05:30.277Z,24.77
2019-03-30T10:07:59.724Z,25.70
2019-03-30T10:10:29.147Z,26.60
2019-03-30T10:12:58.602Z,23.95
2019-03-30T10:15:28.017Z,22.20
2019-03-30T10:17:57.470Z,21.40
2019-03-30T10:20:26.895Z,28.45
2019-03-30T10:22:56.340Z,24.70
2019-03-30T10:25:25.785Z,25.52
2019-03-30T10:27:55.232Z,22.65
2019-03-30T10:30:24.650Z,25.48
2019-03-30T10:32:54.111Z,21.87
2019-03-30T10:35:23.540Z,25.90
2019-03-30T10:37:53.009Z,22.73
2019-03-30T10:40:22.433Z,19.92
2019-03-30T10:42:51.886Z,24.98
2019-03-30T10:45:21.309Z,23.73
2019-03-30T10:47:50.803Z,24.52
2019-03-30T10:50:20.508Z,33.50
2019-03-30T10:52:49.953Z,25.02
2019-03-30T10:55:19.368Z,21.80
2019-03-30T10:57:48.930Z,23.32
2019-03-30T11:00:33.525Z,25.52
2019-03-30T11:03:02.981Z,23.38
2019-03-30T11:05:32.599Z,25.75
2019-03-30T11:08:02.061Z,22.52
2019-03-30T11:10:31.479Z,65.40
2019-03-30T11:13:00.918Z,24.65
2019-03-30T11:15:33.782Z,26.17
2019-03-30T11:18:01.582Z,24.00
2019-03-30T11:20:31.001Z,25.72
2019-03-30T11:23:00.461Z,24.32
2019-03-30T11:25:29.871Z,26.82
2019-03-30T11:27:59.317Z,23.07
2019-03-30T11:30:28.736Z,39.27
2019-03-30T11:32:58.186Z,24.25
2019-03-30T11:35:27.597Z,29.00
2019-03-30T11:37:57.116Z,25.82
2019-03-30T11:40:26.538Z,24.82
2019-03-30T11:42:55.983Z,22.55
2019-03-30T11:45:25.401Z,26.02
2019-03-30T11:47:54.856Z,24.75
2019-03-30T11:50:24.711Z,25.68
2019-03-30T11:52:54.177Z,30.32
2019-03-30T11:55:25.245Z,26.82
2019-03-30T11:57:54.703Z,28.62
2019-03-30T12:00:24.123Z,30.02
2019-03-30T12:02:53.592Z,28.70
2019-03-30T12:05:23.039Z,32.58
2019-03-30T12:07:52.464Z,26.33
2019-03-30T12:10:21.916Z,29.07
2019-03-30T12:12:51.341Z,26.93
2019-03-30T12:15:20.781Z,34.00
2019-03-30T12:17:50.202Z,34.45
2019-03-30T12:20:19.661Z,24.77
2019-03-30T12:22:49.486Z,25.55
2019-03-30T12:25:18.962Z,24.05
2019-03-30T12:27:48.353Z,25.72
2019-03-30T12:30:18.289Z,44.95
2019-03-30T12:32:47.711Z,25.68
2019-03-30T12:35:17.476Z,25.25
2019-03-30T12:37:47.399Z,22.25
2019-03-30T12:40:16.862Z,25.10
2019-03-30T12:42:46.280Z,30.17
2019-03-30T12:45:16.100Z,30.15
2019-03-30T12:47:45.648Z,25.68
2019-03-30T12:50:15.093Z,26.87
2019-03-30T12:52:44.524Z,28.65
2019-03-30T12:55:14.506Z,27.62
2019-03-30T12:57:43.921Z,24.67
2019-03-30T13:00:13.373Z,24.95
2019-03-30T13:02:42.800Z,27.48
2019-03-30T13:05:15.217Z,30.97
2019-03-30T13:07:44.641Z,29.32
2019-03-30T13:10:14.494Z,29.60
2019-03-30T13:12:43.909Z,26.05
2019-03-30T13:15:13.361Z,32.13
2019-03-30T13:17:42.781Z,31.30
2019-03-30T13:20:12.232Z,27.65
2019-03-30T13:22:41.653Z,26.62
2019-03-30T13:25:11.101Z,26.57
2019-03-30T13:27:40.621Z,28.83
2019-03-30T13:30:10.134Z,34.88
2019-03-30T13:32:39.601Z,33.48
2019-03-30T13:35:09.006Z,29.55
2019-03-30T13:37:38.425Z,28.65
2019-03-30T13:40:07.946Z,31.55
2019-03-30T13:42:37.367Z,33.90
2019-03-30T13:45:07.176Z,29.15
2019-03-30T13:47:36.600Z,32.05
2019-03-30T13:50:06.341Z,33.65
2019-03-30T13:52:35.763Z,31.95
2019-03-30T13:55:06.077Z,28.20
2019-03-30T13:57:35.497Z,32.90
2019-03-30T14:00:08.049Z,26.57
2019-03-30T14:02:37.493Z,30.88
2019-03-30T14:05:06.952Z,33.60
2019-03-30T14:07:36.374Z,33.33
2019-03-30T14:10:06.969Z,32.20
2019-03-30T14:12:36.383Z,41.95
2019-03-30T14:15:09.202Z,29.55
2019-03-30T14:17:36.958Z,26.80
2019-03-30T14:20:08.033Z,26.82
2019-03-30T14:22:37.825Z,27.37
2019-03-30T14:25:07.440Z,22.62
2019-03-30T14:27:36.856Z,23.92
2019-03-30T14:30:09.542Z,21.80
2019-03-30T14:32:38.994Z,37.53
2019-03-30T14:35:08.415Z,27.07
2019-03-30T14:37:37.863Z,23.98
2019-03-30T14:40:07.968Z,28.12
2019-03-30T14:42:37.427Z,24.85
2019-03-30T14:45:07.480Z,28.57
2019-03-30T14:47:37.040Z,25.90
2019-03-30T14:50:08.006Z,25.35
2019-03-30T14:52:37.451Z,27.48
2019-03-30T14:55:08.498Z,22.80
2019-03-30T14:57:37.950Z,25.90
2019-03-30T15:00:09.814Z,22.40
2019-03-30T15:02:39.283Z,26.87
2019-03-30T15:05:08.700Z,24.92
2019-03-30T15:07:38.155Z,26.65
2019-03-30T15:10:08.317Z,27.95
2019-03-30T15:12:38.301Z,20.72
2019-03-30T15:15:08.965Z,21.30
2019-03-30T15:17:40.652Z,24.23
2019-03-30T15:20:10.325Z,20.02
2019-03-30T15:22:40.002Z,25.50
2019-03-30T15:25:09.760Z,32.20
2019-03-30T15:27:39.201Z,27.95
2019-03-30T15:30:08.625Z,38.40
2019-03-30T15:32:38.079Z,28.02
2019-03-30T15:35:07.505Z,23.10
2019-03-30T15:37:36.954Z,57.90
2019-03-30T15:40:06.751Z,30.77
2019-03-30T15:42:39.718Z,31.12
2019-03-30T15:45:10.638Z,24.95
2019-03-30T15:47:40.088Z,26.50
2019-03-30T15:50:09.511Z,28.62
2019-03-30T15:52:38.965Z,24.15
2019-03-30T15:55:08.383Z,29.77
2019-03-30T15:57:37.827Z,22.32
2019-03-30T16:00:14.510Z,21.87
2019-03-30T16:02:44.341Z,28.70
2019-03-30T16:05:15.778Z,24.57
2019-03-30T16:07:44.901Z,23.87
2019-03-30T16:10:14.325Z,23.80
2019-03-30T16:12:43.768Z,25.10
2019-03-30T16:15:13.196Z,31.20
2019-03-30T16:17:42.750Z,36.63
2019-03-30T16:20:12.165Z,32.30
2019-03-30T16:22:41.622Z,34.90
2019-03-30T16:25:11.037Z,37.78
2019-03-30T16:27:40.485Z,53.63
2019-03-30T16:30:09.905Z,52.58
2019-03-30T16:32:39.366Z,39.15
2019-03-30T16:35:08.787Z,43.48
2019-03-30T16:37:38.403Z,53.23
2019-03-30T16:40:07.829Z,54.23
2019-03-30T16:42:37.277Z,63.98
2019-03-30T16:45:07.139Z,67.90
2019-03-30T16:47:36.596Z,101.10
2019-03-30T16:50:08.152Z,98.45
2019-03-30T16:52:40.822Z,77.05
2019-03-30T16:55:08.781Z,91.12
2019-03-30T16:57:43.486Z,127.47
2019-03-30T17:00:09.393Z,168.05
2019-03-30T17:02:38.851Z,198.97
2019-03-30T17:05:08.326Z,126.25
2019-03-30T17:07:37.750Z,83.12
2019-03-30T17:10:08.220Z,80.95
2019-03-30T17:12:37.644Z,103.27
2019-03-30T17:15:08.803Z,91.12
2019-03-30T17:17:38.227Z,91.42
2019-03-30T17:20:07.921Z,74.22
2019-03-30T17:22:37.357Z,70.72
2019-03-30T17:25:07.071Z,61.25
2019-03-30T17:27:36.756Z,86.42
2019-03-30T17:30:08.149Z,62.03
2019-03-30T17:32:37.570Z,70.75
2019-03-30T17:35:07.025Z,67.87
2019-03-30T17:37:36.440Z,97.42
2019-03-30T17:40:08.822Z,83.67
2019-03-30T17:42:38.821Z,83.45
2019-03-30T17:45:09.417Z,92.02
2019-03-30T17:47:38.843Z,159.78
2019-03-30T17:50:09.176Z,125.47
2019-03-30T17:52:38.596Z,116.47
2019-03-30T17:55:09.125Z,135.88
2019-03-30T17:57:38.645Z,141.90
2019-03-30T18:00:09.914Z,133.80
2019-03-30T18:02:39.334Z,127.97
2019-03-30T18:05:08.785Z,130.30
2019-03-30T18:07:38.216Z,137.30
2019-03-30T18:10:07.664Z,124.97
2019-03-30T18:12:37.102Z,119.02
2019-03-30T18:15:07.589Z,116.15
2019-03-30T18:17:37.009Z,117.28
2019-03-30T18:20:06.734Z,108.32
2019-03-30T18:22:36.166Z,114.10
2019-03-30T18:25:06.196Z,120.35
2019-03-30T18:27:35.629Z,129.30
2019-03-30T18:30:07.774Z,123.25
2019-03-30T18:32:37.197Z,138.70
2019-03-30T18:35:06.722Z,158.18
2019-03-30T18:37:36.150Z,201.52
2019-03-30T18:40:06.941Z,201.12
2019-03-30T18:42:36.370Z,185.05
2019-03-30T18:45:06.764Z,182.25
2019-03-30T18:47:36.197Z,221.80
2019-03-30T18:50:06.986Z,171.02
2019-03-30T18:52:36.407Z,178.57
2019-03-30T18:55:06.800Z,142.90
2019-03-30T18:57:36.231Z,136.32
2019-03-30T19:00:07.554Z,153.27
2019-03-30T19:02:37.093Z,147.30
2019-03-30T19:05:06.781Z,159.95
2019-03-30T19:07:36.288Z,248.20
2019-03-30T19:10:06.399Z,152.38
2019-03-30T19:12:35.833Z,156.37
2019-03-30T19:15:06.359Z,145.80
2019-03-30T19:17:35.780Z,138.57
2019-03-30T19:20:06.677Z,170.90
2019-03-30T19:22:36.155Z,158.63
2019-03-30T19:25:06.717Z,151.25
2019-03-30T19:27:36.172Z,153.02
2019-03-30T19:30:09.478Z,170.02
2019-03-30T19:32:38.937Z,153.15
2019-03-30T19:35:09.987Z,155.15
2019-03-30T19:37:40.442Z,135.63
2019-03-30T19:40:09.876Z,153.32
2019-03-30T19:42:39.333Z,136.68
2019-03-30T19:45:08.855Z,126.60
2019-03-30T19:47:38.302Z,147.17
2019-03-30T19:50:07.722Z,130.63
2019-03-30T19:52:40.151Z,145.10
2019-03-30T19:55:08.301Z,156.02
2019-03-30T19:57:37.767Z,160.43
2019-03-30T20:00:10.630Z,136.05
2019-03-30T20:02:40.095Z,127.47
2019-03-30T20:05:09.518Z,127.32
2019-03-30T20:07:38.963Z,102.78
2019-03-30T20:10:08.388Z,156.63
2019-03-30T20:12:38.305Z,161.60
2019-03-30T20:15:08.195Z,210.43
2019-03-30T20:17:37.644Z,166.47
2019-03-30T20:20:07.332Z,178.10
2019-03-30T20:22:36.780Z,168.87
2019-03-30T20:25:09.706Z,154.18
2019-03-30T20:27:39.157Z,148.47
2019-03-30T20:30:09.409Z,164.88
2019-03-30T20:32:38.858Z,157.67
2019-03-30T20:35:08.660Z,160.65
2019-03-30T20:37:38.117Z,158.72
2019-03-30T20:40:07.978Z,163.70
2019-03-30T20:42:37.426Z,175.75
2019-03-30T20:45:06.968Z,182.32
2019-03-30T20:47:36.454Z,210.20
2019-03-30T20:50:06.613Z,189.13
2019-03-30T20:52:36.058Z,199.97
2019-03-30T20:55:05.948Z,187.90
2019-03-30T20:57:35.390Z,208.23
2019-03-30T21:00:07.446Z,179.32
2019-03-30T21:02:36.909Z,172.45
2019-03-30T21:05:06.805Z,160.80
2019-03-30T21:07:36.260Z,157.80
2019-03-30T21:10:08.448Z,192.40
2019-03-30T21:12:37.898Z,224.30
2019-03-30T21:15:07.320Z,221.30
2019-03-30T21:17:36.778Z,187.70
2019-03-30T21:20:06.465Z,194.77
2019-03-30T21:22:35.988Z,196.05
2019-03-30T21:25:05.884Z,183.87
2019-03-30T21:27:35.333Z,175.55
2019-03-30T21:30:09.173Z,181.87
2019-03-30T21:32:38.654Z,172.32
2019-03-30T21:35:08.081Z,206.50
2019-03-30T21:37:37.521Z,184.07
2019-03-30T21:40:07.005Z,176.80
2019-03-30T21:42:36.463Z,173.45
2019-03-30T21:45:07.349Z,190.73
2019-03-30T21:47:36.976Z,163.55
2019-03-30T21:50:07.264Z,201.52
2019-03-30T21:52:36.706Z,183.70
2019-03-30T21:55:06.153Z,197.17
2019-03-30T21:57:35.602Z,224.50
2019-03-30T22:00:10.499Z,246.35
2019-03-30T22:02:37.792Z,204.78
2019-03-30T22:05:07.244Z,181.12
2019-03-30T22:07:36.747Z,271.85
2019-03-30T22:10:09.212Z,205.18
2019-03-30T22:12:41.477Z,183.85
2019-03-30T22:15:11.090Z,212.63
2019-03-30T22:17:40.506Z,205.95
2019-03-30T22:20:09.969Z,230.87
2019-03-30T22:22:39.587Z,243.55
2019-03-30T22:25:09.058Z,223.20
2019-03-30T22:27:38.490Z,241.48
2019-03-30T22:30:07.939Z,283.15
2019-03-30T22:32:37.376Z,279.45
2019-03-30T22:35:06.830Z,248.38
2019-03-30T22:37:36.245Z,199.95
2019-03-30T22:40:05.936Z,222.22
2019-03-30T22:42:35.359Z,236.90
2019-03-30T22:45:05.956Z,248.80
2019-03-30T22:47:35.404Z,379.77
2019-03-30T22:50:07.403Z,733.02
2019-03-30T22:52:36.834Z,607.83
2019-03-30T22:55:06.831Z,577.37
2019-03-30T22:57:36.258Z,485.25
2019-03-30T23:00:09.673Z,536.23
2019-03-30T23:02:39.094Z,520.90
2019-03-30T23:05:08.558Z,507.20
2019-03-30T23:07:37.987Z,404.18
2019-03-30T23:10:07.435Z,389.02
2019-03-30T23:12:36.854Z,342.90
2019-03-30T23:15:06.312Z,299.60
2019-03-30T23:17:35.729Z,301.27
2019-03-30T23:20:06.122Z,264.95
2019-03-30T23:22:35.554Z,270.73
2019-03-30T23:25:06.735Z,253.60
2019-03-30T23:27:36.231Z,257.70
2019-03-30T23:30:07.320Z,239.38
2019-03-30T23:32:36.742Z,225.78
2019-03-30T23:35:06.527Z,270.17
2019-03-30T23:37:35.953Z,267.30
2019-03-30T23:40:05.941Z,296.02
2019-03-30T23:42:35.363Z,340.30
2019-03-30T23:45:05.457Z,271.30
2019-03-30T23:47:34.879Z,265.60
2019-03-30T23:50:05.863Z,227.13
2019-03-30T23:52:35.483Z,228.73
2019-03-30T23:55:05.877Z,217.80
2019-03-30T23:57:35.299Z,188.32
